CheckWX is a tool to help pilots better visualize weather data.  It is not intended as a substitute for an official pre-flight weather briefing.

12:23:19 UTC

KOGD METAR
Ogden-Hinckley Airport
Ogden, Utah, USA
Current

30 mins ago

KOGD 221153Z AUTO VRB04KT 10SM OVC070 M05/M12 A2979 RMK AO2 SLP106 T10501117 11028 21050 53014
Observed
Feb-22 @ 11:53 UTC
Wind
  • Variable at 4 KTS
Visibility
10 SM
Flight Rules
VFR
Cloud Levels
  • Overcast at 7,000' AGL
Temperature
-5°C / 23°F
Dewpoint
-12°C / 10°F
Humidity
58%
Altimeter
29.79" Hg
Pressure
1010.6 hPa
Previous

2 hours ago

KOGD 221053Z AUTO 30007KT 10SM OVC070 M04/M12 A2976 RMK AO2 SLP094 T10441117
Observed
Feb-22 @ 10:53 UTC
Wind
  • 300° at 7 KTS
Visibility
10 SM
Flight Rules
VFR
Cloud Levels
  • Overcast at 7,000' AGL
Temperature
-4°C / 25°F
Dewpoint
-12°C / 10°F
Humidity
54%
Altimeter
29.76" Hg
Pressure
1009.4 hPa
Previous

3 hours ago

KOGD 220953Z AUTO 24005KT 10SM OVC070 M04/M12 A2975 RMK AO2 SLP090 T10441122
Observed
Feb-22 @ 09:53 UTC
Wind
  • 240° at 5 KTS
Visibility
10 SM
Flight Rules
VFR
Cloud Levels
  • Overcast at 7,000' AGL
Temperature
-4°C / 25°F
Dewpoint
-12°C / 10°F
Humidity
54%
Altimeter
29.75" Hg
Pressure
1009 hPa